Darrington, WA (98241)

3:32 PM PST on December 19, 2014 (GMT -0800)
Glacier View Internet | Change Station
CLOSE
Current Station
Personal Weather Station
Location: Darrington, WA
Elevation: 549 ft
Nearby Weather Stations
Active Advisory: Areal Flood Watch Active Notice: Record Report

Elev 549 ft 48.25 °N, 121.61 °W | Updated 2 minutes ago

Overcast
Overcast
44.0 °F
Feels Like 44 °F
N
0.0
Wind Variable Wind from SW
Gusts 0.0 mph

Today
High -- | Low -- °F
--% Chance of Precip.
Yesterday
High -- | Low -- °F
Precip. -- in
7:53 AM 4:13 PM
Waning Crescent, 5% visible
Pressure 29.95 in
Visibility 10.0 miles
Clouds Few 3100 ft
Scattered Clouds 3700 ft
Mostly Cloudy 9500 ft
Windchill 44 °F
Dew Point 24 °F
Humidity 45%
Rainfall 0.72 in
Snow Depth Not available.
UV 0.0 out of 12
Pollen .40 out of 12
Air Quality Not available.
Flu Activity Not available.
METAR KAWO 192315Z AUTO 15013KT 10SM FEW031 SCT037 BKN095 09/04 A2995 RMK AO1

More Conditions Fewer Conditions

Pressure 29.95 in
Visibility 10.0 miles
Clouds Few 3100 ft
Scattered Clouds 3700 ft
Mostly Cloudy 9500 ft
Windchill 44 °F
Dew Point 24 °F
Humidity 45%
Rainfall 0.72 in
Snow Depth Not available.
UV 0.0 out of 12
Pollen .40 out of 12
Air Quality Not available.
Flu Activity Not available.
METAR KAWO 192315Z AUTO 15013KT 10SM FEW031 SCT037 BKN095 09/04 A2995 RMK AO1

More Conditions Fewer Conditions

10-Day Weather Forecast

Almanac

Astronomy

Dec. 19, 2014 Rise Set
Actual Time
Civil Twilight
Nautical Twilight
Astronomical Twilight
Moon
Length of Visible Light
Length of Day
Tomorrow will be .
, % of the Moon is Illuminated

Today's Extremes

State Highs State Lows

Community

WunderPhotos

Upload Photos

1,779,073 photos uploaded!

WunderBlogs® & News

Nearby

Air Quality

  Air Quality AQ Index Pollutant
Not available.

Snow Depth

Station Depth Elevation

Earthquake Activity

City Distance Mag. Time & Date
Minimum magnitude displayed is 2.5.

Coastal Water Temperatures

Place Temperature

Nearby Weather Stations